Time;durP1;ratioP1;P1;durP2;ratioP2;P2;SDS_P1;SDS_P2;PMS_P1;PMS_P2;Temp;Humidity;BMP_temperature;BMP_pressure;BME280_temperature;BME280_humidity;BME280_pressure;Samples;Min_cycle;Max_cycle;Signal;HPM_P1;HPM_P2
2021/09/07 00:01:19;;;;;;;12.17;10.87;;;24.10;56.10;;;;;;5088277;28;20220;-68
2021/09/07 00:03:47;;;;;;;12.27;10.97;;;24.20;56.20;;;;;;5107382;28;20661;-68
2021/09/07 00:06:20;;;;;;;12.33;11.13;;;24.10;56.20;;;;;;5106788;28;20642;-68
2021/09/07 00:08:49;;;;;;;13.03;11.37;;;24.10;56.20;;;;;;5104933;28;20192;-68
2021/09/07 00:11:17;;;;;;;11.60;10.50;;;24.10;56.20;;;;;;5099082;28;20204;-68
2021/09/07 00:13:47;;;;;;;12.43;10.43;;;24.10;56.20;;;;;;5086931;28;20207;-68
2021/09/07 00:16:16;;;;;;;11.80;10.60;;;24.10;56.20;;;;;;5093941;28;20261;-68
2021/09/07 00:18:45;;;;;;;11.43;10.23;;;24.10;56.30;;;;;;5089593;28;20184;-68
2021/09/07 00:21:18;;;;;;;11.17;10.07;;;24.10;56.30;;;;;;5109152;28;20216;-69
2021/09/07 00:23:45;;;;;;;11.97;10.77;;;24.10;56.30;;;;;;5080636;28;20201;-68
2021/09/07 00:26:17;;;;;;;11.30;9.90;;;24.10;56.40;;;;;;5105585;28;20618;-68
2021/09/07 00:28:47;;;;;;;12.07;9.97;;;24.00;56.30;;;;;;5097039;28;20197;-68
2021/09/07 00:31:17;;;;;;;11.30;10.20;;;24.00;56.30;;;;;;5105607;28;20212;-68
2021/09/07 00:33:48;;;;;;;11.30;10.20;;;24.10;56.40;;;;;;5094465;28;20226;-69
2021/09/07 00:36:20;;;;;;;12.20;10.87;;;24.00;56.40;;;;;;5090633;28;20646;-69
2021/09/07 00:38:50;;;;;;;11.50;10.43;;;24.00;56.40;;;;;;5102828;28;20224;-68
2021/09/07 00:41:21;;;;;;;12.30;10.50;;;24.00;56.50;;;;;;5105890;28;20550;-69
2021/09/07 00:43:50;;;;;;;12.07;10.87;;;24.00;56.50;;;;;;5098135;28;20212;-68
2021/09/07 00:46:22;;;;;;;12.10;10.77;;;24.00;56.40;;;;;;5107357;28;20259;-69
2021/09/07 00:48:51;;;;;;;12.20;10.90;;;24.00;56.50;;;;;;5110232;28;20204;-68
2021/09/07 00:51:21;;;;;;;11.60;10.47;;;23.90;56.40;;;;;;5107282;28;20633;-68
2021/09/07 00:53:55;;;;;;;13.30;11.13;;;24.00;56.40;;;;;;5108899;28;20201;-68
2021/09/07 00:56:26;;;;;;;12.10;10.33;;;24.00;56.50;;;;;;5100559;28;20205;-68
2021/09/07 00:58:55;;;;;;;11.00;9.83;;;24.00;56.50;;;;;;5099694;28;20265;-69
2021/09/07 01:01:25;;;;;;;12.27;11.07;;;24.00;56.50;;;;;;5089225;28;20234;-68
2021/09/07 01:03:57;;;;;;;11.60;10.43;;;23.90;56.50;;;;;;5101183;28;20211;-68
2021/09/07 01:06:30;;;;;;;11.73;10.60;;;23.90;56.50;;;;;;5106897;28;20241;-69
2021/09/07 01:08:59;;;;;;;11.90;10.37;;;23.90;56.50;;;;;;5090043;28;20197;-68
2021/09/07 01:11:29;;;;;;;11.80;10.53;;;23.90;56.50;;;;;;5093648;28;20209;-68
2021/09/07 01:13:58;;;;;;;11.50;10.40;;;23.90;56.50;;;;;;5089884;28;20208;-68
2021/09/07 01:16:30;;;;;;;11.90;10.70;;;23.90;56.50;;;;;;5090073;28;20231;-69
2021/09/07 01:19:00;;;;;;;11.77;10.50;;;23.90;56.50;;;;;;5103548;28;20205;-69
2021/09/07 01:21:29;;;;;;;14.20;10.90;;;23.90;56.50;;;;;;5104471;28;20212;-69
2021/09/07 01:23:59;;;;;;;13.33;10.93;;;23.90;56.50;;;;;;5101920;28;20204;-69
2021/09/07 01:26:32;;;;;;;12.03;10.50;;;23.90;56.50;;;;;;5085451;28;20193;-68
2021/09/07 01:29:08;;;;;;;12.27;11.00;;;23.90;56.50;;;;;;5098933;28;20205;-69
2021/09/07 01:31:36;;;;;;;12.07;10.87;;;23.90;56.50;;;;;;5102008;28;20219;-68
2021/09/07 01:34:07;;;;;;;13.20;10.87;;;23.90;56.50;;;;;;5100270;28;20201;-68
2021/09/07 01:36:38;;;;;;;11.33;10.23;;;23.90;56.60;;;;;;5107761;28;20204;-68
2021/09/07 01:39:07;;;;;;;12.20;10.43;;;23.80;56.50;;;;;;5103253;28;20201;-68
2021/09/07 01:41:37;;;;;;;11.13;10.03;;;23.90;56.50;;;;;;5110588;28;20216;-68
2021/09/07 01:44:07;;;;;;;11.00;9.90;;;23.80;56.50;;;;;;5099006;27;20197;-68
2021/09/07 01:46:39;;;;;;;12.60;10.67;;;23.90;56.50;;;;;;5106699;28;20236;-68
2021/09/07 01:49:09;;;;;;;11.87;10.63;;;23.80;56.50;;;;;;5078356;28;20193;-68
2021/09/07 01:51:44;;;;;;;11.57;10.37;;;23.80;56.50;;;;;;5088434;28;20205;-68
2021/09/07 01:54:15;;;;;;;11.10;9.93;;;23.80;56.50;;;;;;5104336;28;20188;-68
2021/09/07 01:56:46;;;;;;;10.40;9.40;;;23.80;56.50;;;;;;5075030;28;20223;-68
2021/09/07 01:59:17;;;;;;;10.60;9.60;;;23.80;56.50;;;;;;5102264;28;20253;-68
2021/09/07 02:01:48;;;;;;;12.83;10.20;;;23.80;56.60;;;;;;5107310;27;20215;-68
2021/09/07 02:04:20;;;;;;;11.50;10.40;;;23.80;56.50;;;;;;5103469;28;20314;-69
2021/09/07 02:06:51;;;;;;;11.47;10.37;;;23.80;56.60;;;;;;5104499;27;20657;-68
2021/09/07 02:09:22;;;;;;;11.47;9.93;;;23.70;56.50;;;;;;5101075;28;20201;-68
2021/09/07 02:12:06;;;;;;;11.70;10.50;;;23.70;56.50;;;;;;5086440;28;20211;-68
2021/09/07 02:14:36;;;;;;;10.70;9.70;;;23.80;56.60;;;;;;5109883;28;20203;-68
2021/09/07 02:17:05;;;;;;;11.50;10.27;;;23.70;56.50;;;;;;5080077;28;20554;-68
2021/09/07 02:19:38;;;;;;;11.10;10.00;;;23.70;56.60;;;;;;5106373;28;20279;-68
2021/09/07 02:22:09;;;;;;;10.90;9.80;;;23.70;56.50;;;;;;5099294;28;20224;-68
2021/09/07 02:24:47;;;;;;;11.20;10.07;;;23.70;56.60;;;;;;5092499;28;20630;-68
2021/09/07 02:27:16;;;;;;;11.30;10.20;;;23.70;56.60;;;;;;5111308;28;20227;-68
2021/09/07 02:29:45;;;;;;;11.13;10.03;;;23.70;56.50;;;;;;5110499;28;20180;-68
2021/09/07 02:32:24;;;;;;;11.30;10.10;;;23.80;56.60;;;;;;5083996;28;20210;-68
2021/09/07 02:34:54;;;;;;;10.17;9.13;;;23.70;56.50;;;;;;5108175;28;20197;-68
2021/09/07 02:37:26;;;;;;;11.90;10.70;;;23.70;56.60;;;;;;5101874;28;20441;-68
2021/09/07 02:39:56;;;;;;;11.60;9.77;;;23.70;56.60;;;;;;5101858;28;20580;-69
2021/09/07 02:42:25;;;;;;;10.67;9.47;;;23.70;56.60;;;;;;5103804;28;20224;-68
2021/09/07 02:44:53;;;;;;;11.13;10.03;;;23.70;56.60;;;;;;5088180;28;20240;-69
2021/09/07 02:47:24;;;;;;;11.50;10.27;;;23.70;56.60;;;;;;5102983;28;20220;-68
2021/09/07 02:49:56;;;;;;;12.10;10.20;;;23.70;56.60;;;;;;5098260;28;20197;-68
2021/09/07 02:52:25;;;;;;;10.80;9.57;;;23.70;56.60;;;;;;5107753;28;20207;-68
2021/09/07 02:54:56;;;;;;;11.03;9.93;;;23.70;56.60;;;;;;5084600;28;20196;-68
2021/09/07 02:57:27;;;;;;;13.47;10.13;;;23.70;56.60;;;;;;5107678;28;20234;-68
2021/09/07 02:59:57;;;;;;;11.13;10.13;;;23.70;56.60;;;;;;5093652;28;20247;-68
2021/09/07 03:02:28;;;;;;;11.17;10.10;;;23.60;57.10;;;;;;5089541;28;20204;-68
2021/09/07 03:05:01;;;;;;;10.87;9.77;;;23.70;56.60;;;;;;5077860;28;20195;-68
2021/09/07 03:07:32;;;;;;;12.40;9.83;;;23.60;56.50;;;;;;5086381;28;20245;-68
2021/09/07 03:10:05;;;;;;;10.47;9.37;;;23.70;56.50;;;;;;5098844;28;20207;-68
2021/09/07 03:12:37;;;;;;;11.70;10.33;;;23.60;56.50;;;;;;5083986;28;20198;-68
2021/09/07 03:15:11;;;;;;;10.20;9.17;;;23.70;56.50;;;;;;5099625;28;20688;-68
2021/09/07 03:17:39;;;;;;;10.63;9.63;;;23.60;56.50;;;;;;5099804;28;20246;-69
2021/09/07 03:20:11;;;;;;;10.50;9.50;;;23.60;56.50;;;;;;5104465;28;20204;-68
2021/09/07 03:22:38;;;;;;;12.43;10.90;;;23.60;56.50;;;;;;5096695;28;20216;-68
2021/09/07 03:25:10;;;;;;;11.53;9.97;;;23.60;56.50;;;;;;5103520;28;20200;-68
2021/09/07 03:27:39;;;;;;;11.23;10.13;;;23.60;56.50;;;;;;5102476;28;20197;-68
2021/09/07 03:30:11;;;;;;;11.83;10.20;;;23.60;56.50;;;;;;5106241;28;20207;-68
2021/09/07 03:32:42;;;;;;;11.53;10.33;;;23.60;56.50;;;;;;5092850;28;20626;-69
2021/09/07 03:35:18;;;;;;;11.07;9.87;;;23.60;56.50;;;;;;5107414;28;20210;-69
2021/09/07 03:37:49;;;;;;;12.67;10.37;;;23.60;56.60;;;;;;5095398;28;20208;-69
2021/09/07 03:40:20;;;;;;;11.97;10.77;;;23.60;56.60;;;;;;5105070;28;20801;-68
2021/09/07 03:42:50;;;;;;;10.93;9.83;;;23.60;56.60;;;;;;5084945;28;20490;-68
2021/09/07 03:45:19;;;;;;;12.50;10.83;;;23.50;56.60;;;;;;5101690;28;20208;-68
2021/09/07 03:47:49;;;;;;;11.67;10.47;;;23.50;56.60;;;;;;5091147;28;20193;-68
2021/09/07 03:50:18;;;;;;;10.70;9.60;;;23.60;56.70;;;;;;5084217;28;20207;-69
2021/09/07 03:52:49;;;;;;;10.70;9.70;;;23.50;56.60;;;;;;5083529;28;20216;-68
2021/09/07 03:55:17;;;;;;;13.47;10.80;;;23.50;56.70;;;;;;5102271;28;20192;-70
2021/09/07 03:57:44;;;;;;;11.40;10.30;;;23.50;56.70;;;;;;5084154;28;20212;-70
2021/09/07 04:00:19;;;;;;;11.37;10.27;;;23.50;56.70;;;;;;5081085;28;20236;-69
2021/09/07 04:02:49;;;;;;;12.73;10.00;;;23.50;56.70;;;;;;5107326;28;20242;-69
2021/09/07 04:05:20;;;;;;;10.87;9.77;;;23.50;56.80;;;;;;5097099;28;20190;-69
2021/09/07 04:07:49;;;;;;;11.17;10.07;;;23.50;56.80;;;;;;5107059;28;20900;-68
2021/09/07 04:10:27;;;;;;;11.53;10.43;;;23.50;56.70;;;;;;5074086;28;20278;-69
2021/09/07 04:12:57;;;;;;;11.13;10.03;;;23.50;56.70;;;;;;5107633;28;20212;-69
2021/09/07 04:15:29;;;;;;;11.80;10.30;;;23.50;56.70;;;;;;5093664;28;20204;-69
2021/09/07 04:18:05;;;;;;;12.67;11.37;;;23.50;56.70;;;;;;5084638;28;20197;-69
2021/09/07 04:20:35;;;;;;;12.53;10.00;;;23.50;56.60;;;;;;5097850;28;20614;-69
2021/09/07 04:23:04;;;;;;;12.13;10.93;;;23.50;56.60;;;;;;5085612;28;20220;-69
2021/09/07 04:25:36;;;;;;;12.23;10.97;;;23.50;56.60;;;;;;5098771;28;20201;-69
2021/09/07 04:28:10;;;;;;;15.00;11.33;;;23.50;56.60;;;;;;5079992;28;20212;-69
2021/09/07 04:30:45;;;;;;;13.30;10.90;;;23.40;56.60;;;;;;5101508;28;20265;-69
2021/09/07 04:33:21;;;;;;;14.23;11.13;;;23.50;56.60;;;;;;5076930;28;20696;-68
2021/09/07 04:35:52;;;;;;;13.57;11.73;;;23.40;56.60;;;;;;5106072;28;20650;-68
2021/09/07 04:38:25;;;;;;;13.60;11.80;;;23.40;56.60;;;;;;5101685;28;20638;-69
2021/09/07 04:40:53;;;;;;;15.30;12.03;;;23.40;56.60;;;;;;5107197;28;20192;-69
2021/09/07 04:43:24;;;;;;;13.10;11.80;;;23.40;56.60;;;;;;5104956;28;20201;-69
2021/09/07 04:45:54;;;;;;;13.40;11.50;;;23.40;57.20;;;;;;5102638;28;20227;-69
2021/09/07 04:48:23;;;;;;;13.63;12.20;;;23.40;56.60;;;;;;5079200;28;20269;-69
2021/09/07 04:51:04;;;;;;;13.13;11.73;;;23.40;56.70;;;;;;5114470;28;20249;-69
2021/09/07 04:53:34;;;;;;;13.80;12.30;;;23.40;56.60;;;;;;5100681;28;20201;-69
2021/09/07 04:56:06;;;;;;;11.47;10.37;;;23.40;56.70;;;;;;5108236;28;20198;-68
2021/09/07 04:58:37;;;;;;;19.07;11.40;;;23.40;56.70;;;;;;5101104;28;20180;-71
2021/09/07 05:01:08;;;;;;;31.40;15.40;;;23.40;56.70;;;;;;5106661;28;20193;-69
2021/09/07 05:03:40;;;;;;;42.57;17.13;;;23.40;57.40;;;;;;5102106;28;20204;-69
2021/09/07 05:06:15;;;;;;;32.53;16.33;;;23.40;57.80;;;;;;5107460;28;20205;-69
2021/09/07 05:08:54;;;;;;;30.53;16.40;;;23.50;57.90;;;;;;5099199;28;20201;-69
2021/09/07 05:11:23;;;;;;;24.43;14.17;;;23.50;57.70;;;;;;5106144;28;20287;-68
2021/09/07 05:13:53;;;;;;;24.57;13.63;;;23.50;58.20;;;;;;5105264;27;20751;-68
2021/09/07 05:16:24;;;;;;;21.13;14.27;;;23.50;57.60;;;;;;5093482;28;20188;-67
2021/09/07 05:18:58;;;;;;;20.77;13.37;;;23.50;57.50;;;;;;5076410;28;20196;-67
2021/09/07 05:21:30;;;;;;;21.23;13.43;;;23.50;57.90;;;;;;5111477;28;20261;-69
2021/09/07 05:24:00;;;;;;;18.83;13.27;;;23.50;57.90;;;;;;5111980;27;20272;-69
2021/09/07 05:26:32;;;;;;;19.23;13.67;;;23.40;57.80;;;;;;5110628;28;20216;-69
2021/09/07 05:29:03;;;;;;;17.00;13.17;;;23.50;57.50;;;;;;5109575;27;20207;-69
2021/09/07 05:31:32;;;;;;;16.03;13.43;;;23.50;57.30;;;;;;5111419;28;20205;-70
2021/09/07 05:34:15;;;;;;;15.20;13.13;;;23.50;57.20;;;;;;5092088;28;20304;-69
2021/09/07 05:36:48;;;;;;;15.87;13.50;;;23.40;57.10;;;;;;5106483;27;20229;-70
2021/09/07 05:39:16;;;;;;;15.70;13.67;;;23.40;57.00;;;;;;5097362;27;20593;-71
2021/09/07 05:41:48;;;;;;;16.10;12.67;;;23.40;57.10;;;;;;5106471;27;20239;-68
2021/09/07 05:44:19;;;;;;;17.47;12.63;;;23.40;57.20;;;;;;5101883;28;20196;-68
2021/09/07 05:46:50;;;;;;;16.67;13.13;;;23.40;57.40;;;;;;5064018;28;20220;-68
2021/09/07 05:49:20;;;;;;;16.03;12.87;;;23.40;57.30;;;;;;5059974;28;20213;-68
2021/09/07 05:51:51;;;;;;;16.33;13.67;;;23.40;57.20;;;;;;5090025;28;20197;-68
2021/09/07 05:54:21;;;;;;;16.67;14.30;;;23.40;57.30;;;;;;5086346;28;20545;-69
2021/09/07 05:56:57;;;;;;;15.63;14.00;;;23.40;57.10;;;;;;5097125;28;20633;-69
2021/09/07 05:59:25;;;;;;;17.87;14.60;;;23.40;57.30;;;;;;5078962;28;20201;-69
2021/09/07 06:01:55;;;;;;;16.70;14.90;;;23.40;57.20;;;;;;5091498;28;20212;-69
2021/09/07 06:04:27;;;;;;;23.00;15.83;;;23.40;57.10;;;;;;5093755;28;20202;-70
2021/09/07 06:06:59;;;;;;;18.30;15.10;;;23.40;57.00;;;;;;5091961;28;20258;-68
2021/09/07 06:09:28;;;;;;;18.50;15.30;;;23.30;56.90;;;;;;5088573;28;20204;-70
2021/09/07 06:11:58;;;;;;;18.30;14.20;;;23.40;57.20;;;;;;5079402;28;20708;-70
2021/09/07 06:14:31;;;;;;;19.80;15.33;;;23.40;57.60;;;;;;5083842;28;20193;-70
2021/09/07 06:17:01;;;;;;;17.80;15.40;;;23.40;57.40;;;;;;5080182;28;20230;-70
2021/09/07 06:19:36;;;;;;;17.50;14.80;;;23.40;57.20;;;;;;5064955;28;20208;-70
2021/09/07 06:22:06;;;;;;;17.37;15.20;;;23.50;57.20;;;;;;5083742;28;20217;-70
2021/09/07 06:24:35;;;;;;;16.50;14.70;;;23.50;57.00;;;;;;5082811;28;20215;-68
2021/09/07 06:27:07;;;;;;;18.40;15.90;;;23.50;57.00;;;;;;5081441;28;20681;-66
2021/09/07 06:29:38;;;;;;;18.10;14.63;;;23.50;57.00;;;;;;5084375;28;20190;-68
2021/09/07 06:32:13;;;;;;;18.53;15.10;;;23.50;57.00;;;;;;5079372;28;20267;-67
2021/09/07 06:34:41;;;;;;;20.70;15.23;;;23.60;57.00;;;;;;5075354;28;20246;-69
2021/09/07 06:37:08;;;;;;;20.13;15.47;;;23.50;56.90;;;;;;5074094;28;20224;-69
2021/09/07 06:39:38;;;;;;;18.07;14.67;;;23.60;58.20;;;;;;5083653;28;20194;-68
2021/09/07 06:42:08;;;;;;;19.13;15.17;;;23.60;60.20;;;;;;5077116;28;20334;-67
2021/09/07 06:44:40;;;;;;;23.43;16.20;;;23.70;61.40;;;;;;5064497;28;20280;-68
2021/09/07 06:47:10;;;;;;;22.03;17.87;;;23.70;61.30;;;;;;5082134;28;20232;-69
2021/09/07 06:49:53;;;;;;;21.67;18.20;;;23.70;61.50;;;;;;5097209;28;20193;-68
2021/09/07 06:52:23;;;;;;;23.23;18.47;;;23.70;60.50;;;;;;5081279;28;20231;-69
2021/09/07 06:54:53;;;;;;;24.90;18.43;;;23.70;60.00;;;;;;5104862;28;20203;-69
2021/09/07 06:57:26;;;;;;;26.93;19.83;;;23.70;59.70;;;;;;5107482;28;20283;-69
2021/09/07 07:00:06;;;;;;;20.83;18.43;;;23.70;59.40;;;;;;5103293;28;20215;-68
2021/09/07 07:02:42;;;;;;;26.50;21.27;;;23.70;59.40;;;;;;5104892;28;20433;-69
2021/09/07 07:05:24;;;;;;;23.57;18.37;;;23.80;59.40;;;;;;5098711;28;20444;-67
2021/09/07 07:07:54;;;;;;;21.20;18.90;;;23.80;59.00;;;;;;5085264;28;20827;-69
2021/09/07 07:10:24;;;;;;;21.97;18.63;;;23.80;58.90;;;;;;5080466;28;20201;-68
2021/09/07 07:12:54;;;;;;;22.30;18.33;;;23.80;58.80;;;;;;5101940;28;20686;-68
2021/09/07 07:15:25;;;;;;;22.80;18.50;;;23.80;58.90;;;;;;5092368;28;20205;-67
2021/09/07 07:17:55;;;;;;;24.23;18.87;;;23.80;58.80;;;;;;5101125;28;20295;-69
2021/09/07 07:20:24;;;;;;;21.33;18.60;;;23.80;58.80;;;;;;5101056;28;20726;-70
2021/09/07 07:22:52;;;;;;;20.67;16.80;;;23.80;58.90;;;;;;5087419;28;20212;-70
2021/09/07 07:25:22;;;;;;;19.53;16.10;;;23.90;59.00;;;;;;5092840;28;20205;-68
2021/09/07 07:27:55;;;;;;;20.77;16.27;;;23.80;58.90;;;;;;5103353;28;20189;-68
2021/09/07 07:30:26;;;;;;;18.47;16.33;;;23.90;58.80;;;;;;5094662;28;20188;-70
2021/09/07 07:32:54;;;;;;;18.63;15.83;;;23.90;58.80;;;;;;5081836;28;20299;-69
2021/09/07 07:35:39;;;;;;;22.70;16.07;;;23.90;58.80;;;;;;5086242;28;20233;-71
2021/09/07 07:38:09;;;;;;;18.13;15.57;;;23.90;58.70;;;;;;5099220;28;20205;-70
2021/09/07 07:40:38;;;;;;;19.97;16.20;;;23.90;58.70;;;;;;5085195;28;20534;-70
2021/09/07 07:43:10;;;;;;;18.23;16.27;;;24.00;58.70;;;;;;5081089;28;20221;-70
2021/09/07 07:45:40;;;;;;;18.93;14.93;;;24.00;58.60;;;;;;5096022;28;20322;-67
2021/09/07 07:48:11;;;;;;;19.90;16.87;;;24.00;58.50;;;;;;5103036;27;20257;-67
2021/09/07 07:50:42;;;;;;;19.10;15.67;;;24.00;58.40;;;;;;5100933;28;20626;-68
2021/09/07 07:53:12;;;;;;;16.97;14.27;;;24.10;58.50;;;;;;5102927;28;20203;-69
2021/09/07 07:55:42;;;;;;;18.50;16.20;;;24.10;58.30;;;;;;5109269;27;20510;-67
2021/09/07 07:58:24;;;;;;;19.67;16.07;;;24.10;58.20;;;;;;5087344;27;20199;-67
2021/09/07 08:00:57;;;;;;;17.70;15.73;;;24.10;58.10;;;;;;5094177;28;20204;-68
2021/09/07 08:03:28;;;;;;;20.80;17.17;;;24.10;58.10;;;;;;5098853;28;20216;-67
2021/09/07 08:05:57;;;;;;;17.20;15.37;;;24.10;58.00;;;;;;5100275;28;20229;-68
2021/09/07 08:08:25;;;;;;;18.97;15.77;;;24.20;58.00;;;;;;5077064;28;20193;-68
2021/09/07 08:10:56;;;;;;;17.13;15.33;;;24.20;57.90;;;;;;5088048;28;20645;-71
2021/09/07 08:13:27;;;;;;;17.03;15.23;;;24.20;58.00;;;;;;5098183;28;20205;-70
2021/09/07 08:15:55;;;;;;;18.70;14.47;;;24.20;57.80;;;;;;5105293;27;20201;-69
2021/09/07 08:18:24;;;;;;;18.93;15.37;;;24.20;58.40;;;;;;5088986;28;20204;-70
2021/09/07 08:20:54;;;;;;;19.60;15.77;;;24.30;57.80;;;;;;5084634;28;20212;-68
2021/09/07 08:23:25;;;;;;;19.97;14.63;;;24.30;57.80;;;;;;5091859;28;20224;-68
2021/09/07 08:25:56;;;;;;;17.10;14.47;;;24.30;57.80;;;;;;5085555;28;20215;-72
2021/09/07 08:28:26;;;;;;;16.23;13.97;;;24.30;57.70;;;;;;5097212;27;20250;-72
2021/09/07 08:30:59;;;;;;;16.50;14.23;;;24.40;57.80;;;;;;5101184;28;20200;-70
2021/09/07 08:33:31;;;;;;;19.73;15.70;;;24.30;57.70;;;;;;5103870;28;20199;-70
2021/09/07 08:36:09;;;;;;;17.47;14.17;;;24.40;57.80;;;;;;5085726;28;20192;-66
2021/09/07 08:38:38;;;;;;;17.47;15.17;;;24.40;57.70;;;;;;5106578;27;20207;-66
2021/09/07 08:41:08;;;;;;;18.10;15.93;;;24.40;57.60;;;;;;5105741;28;20196;-66
2021/09/07 08:43:46;;;;;;;18.90;16.40;;;24.40;57.70;;;;;;5086736;28;20330;-66
2021/09/07 08:46:27;;;;;;;17.17;14.80;;;24.40;57.80;;;;;;5096883;28;20232;-66
2021/09/07 08:49:20;;;;;;;17.57;14.43;;;24.30;57.70;;;;;;5102104;28;20570;-68
2021/09/07 08:51:50;;;;;;;18.80;15.97;;;24.30;57.80;;;;;;5079808;28;20194;-70
2021/09/07 08:54:22;;;;;;;18.00;14.83;;;24.30;57.80;;;;;;5085356;28;20207;-70
2021/09/07 08:56:53;;;;;;;17.23;14.33;;;24.40;57.90;;;;;;5080425;28;20188;-69
2021/09/07 08:59:21;;;;;;;17.43;15.17;;;24.40;57.80;;;;;;5108590;28;20598;-69
2021/09/07 09:01:53;;;;;;;16.30;14.60;;;24.40;57.80;;;;;;5072985;28;20618;-68
2021/09/07 09:04:31;;;;;;;18.23;15.70;;;24.40;57.80;;;;;;5085627;28;20220;-68
2021/09/07 09:07:03;;;;;;;17.40;14.77;;;24.50;57.70;;;;;;5093893;28;20670;-67
2021/09/07 09:09:38;;;;;;;18.67;14.77;;;24.50;57.70;;;;;;5103656;28;20211;-67
2021/09/07 09:12:44;;;;;;;16.60;14.23;;;24.50;57.70;;;;;;5081859;28;20809;-68
2021/09/07 09:15:24;;;;;;;17.77;15.37;;;24.50;57.50;;;;;;5102567;28;20199;-68
2021/09/07 09:18:04;;;;;;;19.23;16.00;;;24.60;57.60;;;;;;5105858;28;20188;-68
2021/09/07 09:20:31;;;;;;;19.30;17.00;;;24.60;57.50;;;;;;5085886;28;20223;-69
2021/09/07 09:23:03;;;;;;;19.60;16.47;;;24.50;57.30;;;;;;5081765;28;20560;-69
2021/09/07 09:25:41;;;;;;;20.30;16.90;;;24.60;57.30;;;;;;5088095;28;20200;-69
2021/09/07 09:28:14;;;;;;;17.57;15.67;;;24.60;57.20;;;;;;5100182;28;20794;-70
2021/09/07 09:30:55;;;;;;;21.07;16.30;;;24.60;57.20;;;;;;5099665;28;20553;-70
2021/09/07 09:33:38;;;;;;;18.37;15.50;;;24.60;56.90;;;;;;5088230;28;20326;-69
2021/09/07 09:36:07;;;;;;;18.37;15.43;;;24.70;56.90;;;;;;5099391;28;20245;-69
2021/09/07 09:38:43;;;;;;;19.67;15.77;;;24.70;56.90;;;;;;5101546;28;20220;-69
2021/09/07 09:41:11;;;;;;;17.87;15.30;;;24.70;56.90;;;;;;5100466;28;20192;-69
2021/09/07 09:43:45;;;;;;;18.57;14.63;;;24.70;56.80;;;;;;5083050;28;20225;-70
2021/09/07 09:46:26;;;;;;;19.97;15.57;;;24.70;56.70;;;;;;5090585;28;20225;-69
2021/09/07 09:49:15;;;;;;;17.97;15.30;;;24.70;56.50;;;;;;5060218;28;20201;-70
2021/09/07 09:51:49;;;;;;;21.03;15.93;;;24.70;56.40;;;;;;5077929;28;20223;-70
2021/09/07 09:54:30;;;;;;;19.27;15.80;;;24.70;56.20;;;;;;5063360;28;20224;-70
2021/09/07 09:57:00;;;;;;;19.77;15.27;;;24.70;56.00;;;;;;5079937;28;20217;-70
2021/09/07 09:59:34;;;;;;;16.43;14.43;;;24.70;56.10;;;;;;5065388;28;20204;-70
2021/09/07 10:02:04;;;;;;;20.83;16.13;;;24.70;55.60;;;;;;5086952;28;20225;-66
2021/09/07 10:04:35;;;;;;;18.87;15.00;;;24.70;55.40;;;;;;5104534;28;20751;-66
2021/09/07 10:07:11;;;;;;;18.90;14.90;;;24.70;55.60;;;;;;5104487;28;20193;-66
2021/09/07 10:09:44;;;;;;;16.53;14.37;;;24.70;55.30;;;;;;5092115;28;20642;-66
2021/09/07 10:12:23;;;;;;;18.50;14.20;;;24.70;55.80;;;;;;5107438;28;20195;-67
2021/09/07 10:17:54;;;;;;;17.27;14.90;;;24.60;55.40;;;;;;5090593;28;20557;-67
2021/09/07 10:20:50;;;;;;;16.23;13.70;;;24.70;55.20;;;;;;5085429;28;20192;-67
2021/09/07 10:26:47;;;;;;;15.53;13.90;;;24.70;55.40;;;;;;5108298;28;20740;-66
2021/09/07 10:29:20;;;;;;;16.60;12.50;;;24.70;54.80;;;;;;5103632;28;20199;-66
2021/09/07 10:31:57;;;;;;;14.63;12.83;;;24.60;55.60;;;;;;5120130;28;20195;-67
2021/09/07 10:34:30;;;;;;;13.00;11.70;;;24.70;55.30;;;;;;5104092;28;20201;-67
2021/09/07 10:37:08;;;;;;;14.87;12.03;;;24.70;55.50;;;;;;5098621;28;20196;-68
2021/09/07 10:40:09;;;;;;;12.40;11.17;;;24.70;55.80;;;;;;5087131;28;20646;-68
2021/09/07 10:42:48;;;;;;;12.60;10.67;;;24.70;55.40;;;;;;5102453;28;20734;-69
2021/09/07 10:45:18;;;;;;;12.23;11.03;;;24.70;55.80;;;;;;5085488;28;20601;-70
2021/09/07 10:47:49;;;;;;;13.87;11.00;;;24.80;55.60;;;;;;5095799;27;20236;-70
2021/09/07 10:50:22;;;;;;;12.93;11.63;;;24.80;55.90;;;;;;5107370;27;20226;-69
2021/09/07 10:53:12;;;;;;;13.70;12.27;;;24.90;56.10;;;;;;5107617;27;20229;-68
2021/09/07 10:55:40;;;;;;;12.57;11.30;;;24.90;55.70;;;;;;5097343;27;20205;-69
2021/09/07 10:58:32;;;;;;;12.17;10.90;;;24.90;56.40;;;;;;5099579;27;20222;-68
2021/09/07 11:01:24;;;;;;;15.27;11.83;;;25.00;56.20;;;;;;5106339;27;20196;-69
2021/09/07 11:04:33;;;;;;;13.57;11.20;;;25.00;56.00;;;;;;5099152;28;20208;-70
2021/09/07 11:07:49;;;;;;;13.77;11.43;;;25.00;55.90;;;;;;5108028;27;20193;-69
2021/09/07 11:10:38;;;;;;;11.50;10.30;;;25.00;55.80;;;;;;5062477;27;20197;-69
2021/09/07 11:13:15;;;;;;;14.10;9.87;;;25.10;56.20;;;;;;5093086;28;20203;-69
2021/09/07 11:15:47;;;;;;;11.10;9.87;;;25.00;56.60;;;;;;5100890;28;20288;-69
2021/09/07 11:18:34;;;;;;;12.23;10.70;;;25.10;57.00;;;;;;5082060;28;20204;-69
2021/09/07 11:21:07;;;;;;;11.70;10.50;;;25.10;56.90;;;;;;5106841;27;20204;-68
2021/09/07 11:23:38;;;;;;;12.13;9.33;;;25.20;57.00;;;;;;5083330;28;20307;-69
2021/09/07 11:26:16;;;;;;;12.73;10.77;;;25.20;56.70;;;;;;5109130;27;20194;-68
2021/09/07 11:28:49;;;;;;;11.53;10.33;;;25.20;56.60;;;;;;5083252;28;20192;-68
2021/09/07 11:31:25;;;;;;;11.97;9.73;;;25.20;57.00;;;;;;5074916;28;20268;-68
2021/09/07 11:34:11;;;;;;;12.00;10.80;;;25.20;57.00;;;;;;5104452;27;20204;-70
2021/09/07 11:36:40;;;;;;;10.90;9.80;;;25.30;56.80;;;;;;5105153;28;20212;-69
2021/09/07 11:39:20;;;;;;;12.50;10.17;;;25.30;56.60;;;;;;5103249;28;20234;-69
2021/09/07 11:42:01;;;;;;;11.40;10.20;;;25.30;56.20;;;;;;5082200;28;20216;-70
2021/09/07 11:44:32;;;;;;;10.67;9.67;;;25.30;56.30;;;;;;5089780;28;20836;-69
2021/09/07 11:47:06;;;;;;;10.77;9.67;;;25.40;56.80;;;;;;5081158;28;20558;-69
2021/09/07 11:49:41;;;;;;;10.77;9.13;;;25.40;56.90;;;;;;5105177;28;20927;-69
2021/09/07 11:52:10;;;;;;;10.70;9.60;;;25.40;56.80;;;;;;5085781;28;20192;-70
2021/09/07 11:54:39;;;;;;;10.23;9.23;;;25.50;56.80;;;;;;5082379;28;20203;-70
2021/09/07 11:57:08;;;;;;;11.87;9.63;;;25.50;56.50;;;;;;5082668;28;20218;-70
2021/09/07 11:59:39;;;;;;;10.70;9.60;;;25.50;56.60;;;;;;5104265;28;20910;-70
2021/09/07 12:02:13;;;;;;;10.87;9.63;;;25.60;56.60;;;;;;5097282;28;20629;-69
2021/09/07 12:04:57;;;;;;;9.77;8.63;;;25.60;56.40;;;;;;5076046;28;20225;-69
2021/09/07 12:07:25;;;;;;;10.60;9.50;;;25.60;56.50;;;;;;5088182;28;20201;-69
2021/09/07 12:10:06;;;;;;;10.73;9.63;;;25.60;56.40;;;;;;5108575;27;20228;-69
2021/09/07 12:12:36;;;;;;;10.53;9.50;;;25.60;56.20;;;;;;5099713;28;20642;-69
2021/09/07 12:15:15;;;;;;;11.87;9.73;;;25.60;56.10;;;;;;5096818;27;20197;-66
2021/09/07 12:17:50;;;;;;;10.97;9.77;;;25.70;56.00;;;;;;5074485;28;20692;-67
2021/09/07 12:20:37;;;;;;;10.87;9.67;;;25.60;54.90;;;;;;5103507;28;20199;-67
2021/09/07 12:23:06;;;;;;;11.70;10.23;;;25.60;54.80;;;;;;5095162;28;20204;-66
2021/09/07 12:25:46;;;;;;;10.80;9.63;;;25.60;54.60;;;;;;5101038;28;20208;-66
2021/09/07 12:28:17;;;;;;;11.63;10.43;;;25.70;55.10;;;;;;5064979;28;20219;-66
2021/09/07 12:30:50;;;;;;;11.07;9.97;;;25.70;55.00;;;;;;5069878;28;20212;-67
2021/09/07 12:33:25;;;;;;;10.40;9.30;;;25.70;55.30;;;;;;5110473;27;20196;-66
2021/09/07 12:36:05;;;;;;;11.97;10.30;;;25.70;54.90;;;;;;5102020;27;20216;-68
2021/09/07 12:38:40;;;;;;;12.27;9.97;;;25.70;55.30;;;;;;5105155;28;20196;-70
2021/09/07 12:41:22;;;;;;;12.10;10.47;;;25.70;55.40;;;;;;5073596;28;20209;-67
2021/09/07 12:43:58;;;;;;;14.63;11.20;;;25.70;54.50;;;;;;5103634;27;20228;-67
2021/09/07 12:46:31;;;;;;;11.30;10.10;;;25.70;54.10;;;;;;5077105;28;20225;-67
2021/09/07 12:49:03;;;;;;;12.17;10.87;;;25.70;54.20;;;;;;5081875;28;20210;-67
2021/09/07 12:51:31;;;;;;;10.83;9.30;;;25.70;54.60;;;;;;5081663;28;20201;-67
2021/09/07 12:54:08;;;;;;;11.53;9.63;;;25.70;56.10;;;;;;5070236;28;20631;-67
2021/09/07 12:56:40;;;;;;;11.23;10.00;;;25.80;55.60;;;;;;5084196;28;20212;-67
2021/09/07 12:59:10;;;;;;;10.67;9.67;;;25.70;55.50;;;;;;5076471;28;20209;-66
2021/09/07 13:01:41;;;;;;;13.13;11.60;;;25.80;55.70;;;;;;5088488;28;20693;-66
2021/09/07 13:04:15;;;;;;;12.37;11.17;;;25.80;55.20;;;;;;5068282;28;20228;-66